Terminal Aerodrome Forecast
Issued by NWS

Home | Current Version | Previous Version | Text Only | Print | Product List | Glossary On
Versions: 1 2 3 4 5 6 7 8 9 10 11 12 13 14 15
000
FTUS46 KSGX 270520
TAFONT
TAF
KONT 270520Z 2706/2812 VRB05KT P6SM SCT120
     FM271100 VRB05KT P6SM BKN012
     FM271600 VRB05KT P6SM SCT020 BKN050
     FM272000 25011KT P6SM FEW250
     FM280500 VRB05KT P6SM SCT250=

USA.gov is the U.S. government's official web portal to all federal, state and local government web resources and services.